Terminal Aerodrome Forecast
Issued by NWS

Home | Current Version | Previous Version | Text Only | Print | Product List | Glossary On
Versions: 1 2 3 4 5 6 7 8 9 10 11 12 13 14 15 16 17 18 19 20 21 22 23 24 25 26
000
FTPA31 PHFO 191700
TAFJRF
TAF
PHJR 191735Z 1918/2018 VRB04KT P6SM FEW020 SCT060
     FM192000 17008KT P6SM SCT030 BKN060
     FM200500 VRB05KT P6SM FEW030 SCT060=

USA.gov is the U.S. government's official web portal to all federal, state and local government web resources and services.